Main page


Airports :

Qaisumah, Saudi Arabia

Al Qaisumah/Hafr Al Batin Airport

latitude: 28-19N, longitude: 046-07E, elevation: 358 m

Current weather observation

The report was made 1 hour and 0 minutes ago, at 09:00 UTC
Wind 8 kt from the North
Temperature 23°C
Humidity 36%
Pressure 1016 hPa
Visibility 10 km or more
no clouds below 1500 m and no cumulonimbus

METAR: OEPA 180900Z 36008KT CAVOK 23/07 Q1016 NOSIG

Time: 13:00 (10:00 UTC)


The report was made 11 hours and 0 minutes ago, at 23:00 UTC
Forecast valid from 18 at 00 UTC to 19 at 06 UTC
Wind 5 kt from the North/Northwest with gusts up to 15 kt
Visibility: 6000 m
Clear sky

TAF: OEPA 172300Z 1800/1906 33005G15KT 6000 SKC

Weather observations and forecasts of more than 4000 airports (METAR and TAF reports).

The available stations are represented by yellow and red dots on the map.

Hover mouse over dot to see the name of the station.

Then click to see weather observations and forecasts.

To change the map : click on the green buttons with a black cross to zoom in, on the green button with a dash to zoom out, or on the green arrows for adjacent maps.